Time;durP1;ratioP1;P1;durP2;ratioP2;P2;SDS_P1;SDS_P2;PMS_P1;PMS_P2;Temp;Humidity;BMP_temperature;BMP_pressure;BME280_temperature;BME280_humidity;BME280_pressure;Samples;Min_cycle;Max_cycle;Signal;HPM_P1;HPM_P2
2022/01/22 00:00:23;;;;;;;2.67;2.05;;;5.70;99.90;;;;;;5080277;28;20062;-52
2022/01/22 00:02:50;;;;;;;5.43;2.15;;;5.70;99.90;;;;;;5079407;28;20203;-58
2022/01/22 00:05:19;;;;;;;4.22;1.50;;;5.70;99.90;;;;;;5080388;28;20024;-57
2022/01/22 00:07:44;;;;;;;5.53;1.92;;;5.70;99.90;;;;;;5079281;28;20059;-54
2022/01/22 00:10:14;;;;;;;4.45;2.25;;;5.70;99.90;;;;;;5078909;28;20514;-53
2022/01/22 00:13:06;;;;;;;9.18;2.40;;;5.70;99.90;;;;;;5077938;28;20134;-57
2022/01/22 00:15:32;;;;;;;3.30;1.90;;;5.70;99.90;;;;;;5078173;28;20108;-50
2022/01/22 00:17:58;;;;;;;5.20;1.90;;;5.70;99.90;;;;;;5078927;28;20031;-53
2022/01/22 00:20:26;;;;;;;4.15;2.25;;;5.70;99.90;;;;;;5079267;28;20023;-53
2022/01/22 00:22:52;;;;;;;3.63;2.10;;;5.70;99.90;;;;;;5078458;28;20020;-50
2022/01/22 00:25:20;;;;;;;5.28;2.33;;;5.60;99.90;;;;;;5079820;28;20032;-52
2022/01/22 00:27:47;;;;;;;3.42;1.73;;;5.70;99.90;;;;;;5079101;28;20031;-53
2022/01/22 00:30:16;;;;;;;2.33;1.58;;;5.70;99.90;;;;;;5078104;28;20052;-52
2022/01/22 00:32:42;;;;;;;5.47;1.80;;;5.70;99.90;;;;;;5077814;28;20110;-50
2022/01/22 00:35:08;;;;;;;4.75;2.17;;;5.60;99.90;;;;;;5059986;28;20020;-51
2022/01/22 00:37:36;;;;;;;3.40;1.70;;;5.60;99.90;;;;;;5076725;28;20101;-52
2022/01/22 00:40:03;;;;;;;4.85;2.13;;;5.60;99.90;;;;;;5059206;28;20096;-52
2022/01/22 00:42:32;;;;;;;2.92;1.55;;;5.60;99.90;;;;;;5076959;28;20155;-56
2022/01/22 00:44:57;;;;;;;6.00;1.90;;;5.60;99.90;;;;;;5078191;28;20090;-55
2022/01/22 00:47:23;;;;;;;6.55;2.10;;;5.60;99.90;;;;;;5079148;28;20069;-56
2022/01/22 00:49:48;;;;;;;5.35;2.00;;;5.60;99.90;;;;;;5079076;28;20040;-53
2022/01/22 00:52:14;;;;;;;3.60;1.95;;;5.60;99.90;;;;;;5078823;28;20033;-54
2022/01/22 00:54:39;;;;;;;5.03;1.83;;;5.60;99.90;;;;;;5079692;28;20379;-55
2022/01/22 00:57:05;;;;;;;5.00;2.42;;;5.60;99.90;;;;;;5079520;28;20096;-58
2022/01/22 00:59:31;;;;;;;5.15;1.85;;;5.60;99.90;;;;;;5078888;28;20629;-56
2022/01/22 01:01:57;;;;;;;5.57;1.77;;;5.60;99.90;;;;;;5079247;28;20023;-53
2022/01/22 01:04:23;;;;;;;2.83;1.77;;;5.60;99.90;;;;;;5079326;28;20062;-53
2022/01/22 01:06:48;;;;;;;4.72;2.05;;;5.60;99.90;;;;;;5079676;28;20024;-56
2022/01/22 01:09:14;;;;;;;4.43;1.75;;;5.60;99.90;;;;;;5078828;28;20100;-56
2022/01/22 01:11:46;;;;;;;4.18;1.85;;;5.60;99.90;;;;;;5079932;28;20391;-53
2022/01/22 01:14:17;;;;;;;4.47;1.95;;;5.60;99.90;;;;;;5081297;28;20024;-56
2022/01/22 01:33:17;;;;;;;5.15;2.15;;;5.50;99.90;;;;;;5076975;28;20051;-50
2022/01/22 01:35:43;;;;;;;9.43;2.45;;;5.50;99.90;;;;;;5081720;28;20024;-56
2022/01/22 01:38:09;;;;;;;4.88;1.92;;;5.50;99.90;;;;;;5063933;28;20046;-56
2022/01/22 01:40:39;;;;;;;5.82;2.13;;;5.50;99.90;;;;;;5082460;28;20135;-52
2022/01/22 01:45:31;;;;;;;9.52;3.17;;;5.50;99.90;;;;;;5082551;28;20029;-54
2022/01/22 01:48:01;;;;;;;6.50;2.90;;;5.40;99.90;;;;;;5082878;28;20024;-57
2022/01/22 01:50:27;;;;;;;5.22;2.65;;;5.40;99.90;;;;;;5081387;28;20029;-49
2022/01/22 01:55:47;;;;;;;10.43;3.30;;;5.50;99.90;;;;;;5079365;28;20017;-51
2022/01/22 01:58:13;;;;;;;9.50;3.25;;;5.50;99.90;;;;;;5077904;28;20494;-57
2022/01/22 02:00:39;;;;;;;9.60;3.88;;;5.50;99.90;;;;;;5079101;28;20059;-54
2022/01/22 02:03:06;;;;;;;5.25;3.15;;;5.50;99.90;;;;;;5079480;28;20056;-55
2022/01/22 02:05:33;;;;;;;10.82;3.58;;;5.50;99.90;;;;;;5080410;28;20128;-58
2022/01/22 02:07:59;;;;;;;10.15;3.72;;;5.40;99.90;;;;;;5063296;28;20028;-52
2022/01/22 02:10:28;;;;;;;6.55;3.15;;;5.40;99.90;;;;;;5081904;28;20108;-53
2022/01/22 02:23:43;;;;;;;7.25;3.03;;;5.30;99.90;;;;;;5081662;28;20038;-58
2022/01/22 02:26:11;;;;;;;7.93;4.00;;;5.40;99.90;;;;;;5078280;28;20034;-53
2022/01/22 02:28:37;;;;;;;11.13;2.88;;;5.30;99.90;;;;;;5079353;28;20082;-56
2022/01/22 02:31:18;;;;;;;9.35;3.63;;;5.30;99.90;;;;;;5081250;28;20035;-52
2022/01/22 02:34:45;;;;;;;11.00;3.83;;;5.40;99.90;;;;;;5081866;28;20032;-51
2022/01/22 02:36:53;;;;;;;9.20;3.70;;;5.30;99.90;;;;;;5063665;28;20038;-52
2022/01/22 02:39:24;;;;;;;15.23;3.85;;;5.40;99.90;;;;;;5081575;28;20158;-52
2022/01/22 02:41:51;;;;;;;7.25;3.30;;;5.40;99.90;;;;;;5080661;28;20425;-60
2022/01/22 02:44:35;;;;;;;9.20;3.50;;;5.30;99.90;;;;;;5080048;28;20027;-54
2022/01/22 02:47:06;;;;;;;12.98;3.72;;;5.40;99.90;;;;;;5080077;28;20023;-57
2022/01/22 02:49:31;;;;;;;6.43;3.15;;;5.40;99.90;;;;;;5080683;28;20028;-52
2022/01/22 02:52:07;;;;;;;11.95;3.65;;;5.40;99.90;;;;;;5080505;28;20058;-54
2022/01/22 02:54:33;;;;;;;5.70;2.97;;;5.40;99.90;;;;;;5080265;28;20017;-54
2022/01/22 02:56:59;;;;;;;5.80;3.08;;;5.40;99.90;;;;;;5081020;28;20035;-52
2022/01/22 02:59:24;;;;;;;9.75;3.65;;;5.40;99.90;;;;;;5081475;28;20024;-54
2022/01/22 03:01:50;;;;;;;8.10;3.45;;;5.40;99.90;;;;;;5081344;28;20032;-54
2022/01/22 03:04:19;;;;;;;8.43;2.92;;;5.40;99.90;;;;;;5080132;28;20479;-53
2022/01/22 03:06:47;;;;;;;7.28;3.40;;;5.40;99.90;;;;;;5080993;28;20043;-57
2022/01/22 03:09:15;;;;;;;11.35;3.50;;;5.40;99.90;;;;;;5062219;28;20028;-56
2022/01/22 03:11:48;;;;;;;12.88;3.92;;;5.40;99.90;;;;;;5080560;28;20058;-55
2022/01/22 03:14:31;;;;;;;11.05;3.92;;;5.40;99.90;;;;;;5080842;28;20502;-54
2022/01/22 03:27:31;;;;;;;7.55;4.22;;;5.40;99.90;;;;;;5080875;28;20055;-52
2022/01/22 03:29:57;;;;;;;8.07;3.95;;;5.40;99.90;;;;;;5080958;28;20391;-51
2022/01/22 03:32:26;;;;;;;9.35;4.05;;;5.40;99.90;;;;;;5080376;28;20059;-56
2022/01/22 03:34:58;;;;;;;11.88;4.00;;;5.40;99.90;;;;;;5080982;28;20391;-57
2022/01/22 03:37:25;;;;;;;16.95;4.30;;;5.40;99.90;;;;;;5080344;28;20035;-56
2022/01/22 03:39:51;;;;;;;5.05;3.55;;;5.40;99.90;;;;;;5080511;28;20020;-53
2022/01/22 03:42:17;;;;;;;10.00;4.15;;;5.40;99.90;;;;;;5080385;28;20029;-55
2022/01/22 03:44:43;;;;;;;7.35;3.78;;;5.40;99.90;;;;;;5081262;28;20073;-54
2022/01/22 03:47:09;;;;;;;7.25;3.20;;;5.40;99.90;;;;;;5078427;28;20031;-58
2022/01/22 03:49:34;;;;;;;12.10;3.55;;;5.40;99.90;;;;;;5079180;28;20024;-50
2022/01/22 03:52:00;;;;;;;7.38;3.35;;;5.40;99.90;;;;;;5078720;28;20055;-51
2022/01/22 03:54:25;;;;;;;8.30;3.65;;;5.40;99.90;;;;;;5076724;28;20035;-50
2022/01/22 03:56:52;;;;;;;6.57;3.53;;;5.40;99.90;;;;;;5080688;28;20500;-52
2022/01/22 03:59:18;;;;;;;7.07;3.40;;;5.40;99.90;;;;;;5059923;28;20048;-54
2022/01/22 04:04:34;;;;;;;7.30;3.50;;;5.40;99.90;;;;;;5079403;28;20020;-55
2022/01/22 04:09:45;;;;;;;11.25;3.17;;;5.40;99.90;;;;;;5080526;28;20029;-57
2022/01/22 04:12:15;;;;;;;9.23;3.65;;;5.40;99.90;;;;;;5079805;28;20020;-52
2022/01/22 04:14:48;;;;;;;7.65;3.83;;;5.30;99.90;;;;;;5078451;28;20064;-54
2022/01/22 04:25:22;;;;;;;10.27;3.78;;;5.30;99.90;;;;;;5005609;28;20053;-53
2022/01/22 04:27:48;;;;;;;8.45;3.72;;;5.30;99.90;;;;;;5078928;28;20535;-53
2022/01/22 04:30:14;;;;;;;9.07;3.40;;;5.30;99.90;;;;;;5079113;28;20107;-53
2022/01/22 04:32:40;;;;;;;9.35;3.78;;;5.30;99.90;;;;;;5059523;28;20086;-55
2022/01/22 04:35:06;;;;;;;7.10;3.15;;;5.30;99.90;;;;;;5078464;28;20098;-54
2022/01/22 04:37:31;;;;;;;6.72;3.47;;;5.30;99.90;;;;;;5077397;28;20040;-53
2022/01/22 04:39:57;;;;;;;11.15;3.50;;;5.30;99.90;;;;;;5079069;28;20063;-53
2022/01/22 04:42:24;;;;;;;11.68;3.60;;;5.30;99.90;;;;;;5078804;28;20024;-54
2022/01/22 04:47:31;;;;;;;7.45;3.63;;;5.30;99.90;;;;;;5076797;28;20024;-54
2022/01/22 04:54:57;;;;;;;16.35;5.25;;;5.30;99.90;;;;;;5078796;28;20066;-55
2022/01/22 04:55:26;;;;;;;10.57;5.22;;;5.30;99.90;;;;;;5079121;28;20032;-51
2022/01/22 04:57:51;;;;;;;10.52;4.22;;;5.30;99.90;;;;;;5078378;28;20086;-54
2022/01/22 05:00:18;;;;;;;8.38;3.58;;;5.30;99.90;;;;;;5078892;28;20024;-52
2022/01/22 05:02:43;;;;;;;9.10;3.70;;;5.30;99.90;;;;;;5079523;28;20628;-55
2022/01/22 05:05:09;;;;;;;9.70;4.68;;;5.30;99.90;;;;;;5078748;28;20028;-57
2022/01/22 05:07:35;;;;;;;9.90;3.75;;;5.30;99.90;;;;;;5078988;28;20037;-58
2022/01/22 05:10:02;;;;;;;13.98;4.18;;;5.30;99.90;;;;;;5060268;28;20016;-55
2022/01/22 05:12:28;;;;;;;15.65;3.60;;;5.30;99.90;;;;;;5077943;28;20016;-55
2022/01/22 05:14:53;;;;;;;10.27;4.30;;;5.30;99.90;;;;;;5078194;28;20024;-55
2022/01/22 05:17:19;;;;;;;10.02;3.95;;;5.30;99.90;;;;;;5077805;28;20024;-53
2022/01/22 05:19:52;;;;;;;11.38;3.38;;;5.30;99.90;;;;;;5077448;28;20020;-55
2022/01/22 05:22:49;;;;;;;8.90;3.17;;;5.40;99.90;;;;;;5075302;28;20028;-55
2022/01/22 05:25:21;;;;;;;12.13;3.70;;;5.40;99.90;;;;;;5078803;28;20104;-50
2022/01/22 05:38:19;;;;;;;10.95;3.58;;;5.40;99.90;;;;;;5077564;28;20120;-55
2022/01/22 05:40:45;;;;;;;8.63;3.95;;;5.30;99.90;;;;;;5078786;28;20103;-52
2022/01/22 05:43:10;;;;;;;11.27;4.70;;;5.40;99.90;;;;;;5078636;28;20068;-53
2022/01/22 05:45:36;;;;;;;11.90;4.90;;;5.40;99.90;;;;;;5078790;28;20024;-54
2022/01/22 05:48:02;;;;;;;6.57;3.97;;;5.40;99.90;;;;;;5079099;28;20051;-53
2022/01/22 05:53:00;;;;;;;12.15;3.75;;;5.40;99.90;;;;;;5079141;28;20035;-53
2022/01/22 06:00:59;;;;;;;9.82;3.28;;;5.30;99.90;;;;;;5008961;28;20474;-55
2022/01/22 06:03:24;;;;;;;10.90;3.95;;;5.40;99.90;;;;;;5065507;28;20051;-57
2022/01/22 06:05:50;;;;;;;9.15;4.28;;;5.40;99.90;;;;;;5083655;28;20068;-52
2022/01/22 06:08:17;;;;;;;12.90;4.53;;;5.40;99.90;;;;;;5080033;28;20410;-53
2022/01/22 06:10:46;;;;;;;7.93;4.65;;;5.40;99.90;;;;;;5081545;28;20039;-51
2022/01/22 06:13:15;;;;;;;5.57;3.50;;;5.40;99.90;;;;;;5078643;28;20032;-56
2022/01/22 06:15:40;;;;;;;9.02;4.80;;;5.40;99.90;;;;;;5078018;28;20570;-53
2022/01/22 06:18:06;;;;;;;8.85;4.65;;;5.40;99.90;;;;;;5081744;28;20111;-53
2022/01/22 06:20:33;;;;;;;8.57;4.45;;;5.30;99.90;;;;;;5081141;28;20123;-54
2022/01/22 06:22:59;;;;;;;8.88;4.45;;;5.40;99.90;;;;;;5081665;28;20056;-57
2022/01/22 06:25:24;;;;;;;13.90;5.30;;;5.40;99.90;;;;;;5081382;28;20028;-54
2022/01/22 06:27:50;;;;;;;17.45;5.53;;;5.40;99.90;;;;;;5081016;28;20035;-51
2022/01/22 06:30:15;;;;;;;9.52;3.90;;;5.40;99.90;;;;;;5081846;28;20028;-56
2022/01/22 06:32:41;;;;;;;9.90;4.72;;;5.30;99.90;;;;;;5080486;28;20071;-54
2022/01/22 06:35:07;;;;;;;9.43;4.70;;;5.40;99.90;;;;;;5081820;28;20035;-55
2022/01/22 06:37:33;;;;;;;10.60;5.45;;;5.40;99.90;;;;;;5080490;28;20082;-51
2022/01/22 06:42:30;;;;;;;9.88;5.15;;;5.30;99.90;;;;;;5076371;28;20119;-54
2022/01/22 06:44:57;;;;;;;7.18;4.53;;;5.40;99.90;;;;;;5080526;28;20114;-55
2022/01/22 06:47:23;;;;;;;11.07;5.00;;;5.40;99.90;;;;;;5080543;28;20511;-53
2022/01/22 06:49:49;;;;;;;11.13;5.03;;;5.40;99.90;;;;;;5081183;28;20076;-55
2022/01/22 06:52:14;;;;;;;9.73;5.03;;;5.30;99.90;;;;;;5080890;28;20063;-56
2022/01/22 06:54:42;;;;;;;12.38;5.00;;;5.30;99.90;;;;;;5081680;28;20028;-57
2022/01/22 06:57:07;;;;;;;9.57;5.28;;;5.30;99.90;;;;;;5062343;28;20028;-50
2022/01/22 06:59:33;;;;;;;8.75;4.82;;;5.40;99.90;;;;;;5080447;28;20541;-54
2022/01/22 07:01:59;;;;;;;9.10;4.55;;;5.30;99.90;;;;;;5082228;28;20572;-59
2022/01/22 07:04:24;;;;;;;12.55;4.95;;;5.40;99.90;;;;;;5062538;28;20083;-50
2022/01/22 07:06:50;;;;;;;12.95;5.28;;;5.30;99.90;;;;;;5082316;28;20040;-53
2022/01/22 07:09:15;;;;;;;10.50;5.00;;;5.40;99.90;;;;;;5078570;28;20044;-57
2022/01/22 07:11:41;;;;;;;10.93;5.05;;;5.40;99.90;;;;;;5080173;28;20037;-59
2022/01/22 07:14:06;;;;;;;8.15;4.32;;;5.30;99.90;;;;;;5078688;28;20487;-56
2022/01/22 07:16:32;;;;;;;9.90;4.95;;;5.40;99.90;;;;;;5078367;28;20025;-52
2022/01/22 07:19:00;;;;;;;8.25;5.35;;;5.30;99.90;;;;;;5075475;28;20024;-55
2022/01/22 07:21:28;;;;;;;10.32;4.90;;;5.30;99.90;;;;;;5076765;28;20036;-55
2022/01/22 07:24:22;;;;;;;9.30;5.00;;;5.30;99.90;;;;;;5076282;28;20040;-59
2022/01/22 07:26:39;;;;;;;7.75;4.80;;;5.30;99.90;;;;;;5074903;28;20032;-58
2022/01/22 07:29:05;;;;;;;11.25;6.25;;;5.30;99.90;;;;;;5075678;28;20053;-54
2022/01/22 07:31:30;;;;;;;9.13;5.32;;;5.40;99.90;;;;;;5075637;28;20031;-55
2022/01/22 07:33:56;;;;;;;10.13;5.18;;;5.40;99.90;;;;;;5077137;28;20510;-56
2022/01/22 07:36:21;;;;;;;7.57;5.03;;;5.40;99.90;;;;;;5080405;28;20051;-56
2022/01/22 07:38:47;;;;;;;11.10;5.60;;;5.30;99.90;;;;;;5078467;28;20028;-53
2022/01/22 07:41:13;;;;;;;11.45;5.40;;;5.30;99.90;;;;;;5079906;28;20017;-54
2022/01/22 07:43:40;;;;;;;8.77;5.25;;;5.40;99.90;;;;;;5077968;28;20040;-57
2022/01/22 07:46:06;;;;;;;9.80;4.57;;;5.40;99.90;;;;;;5080165;28;20073;-55
2022/01/22 07:48:32;;;;;;;7.88;4.65;;;5.30;99.90;;;;;;5077082;28;20040;-56
2022/01/22 07:50:58;;;;;;;7.55;4.25;;;5.40;99.90;;;;;;5076365;28;20039;-55
2022/01/22 07:53:24;;;;;;;9.07;3.30;;;5.30;99.90;;;;;;5072062;28;20125;-51
2022/01/22 07:55:51;;;;;;;6.95;3.65;;;5.40;99.90;;;;;;5080078;28;20021;-57
2022/01/22 07:58:16;;;;;;;6.72;2.95;;;5.40;99.90;;;;;;5079720;28;20769;-56
2022/01/22 08:00:42;;;;;;;3.75;2.35;;;5.30;99.90;;;;;;5080150;28;20029;-59
2022/01/22 08:03:09;;;;;;;3.22;2.40;;;5.40;99.90;;;;;;5080421;28;20032;-52
2022/01/22 08:05:35;;;;;;;4.30;2.22;;;5.40;99.90;;;;;;5080128;28;20530;-58
2022/01/22 08:08:00;;;;;;;4.93;2.50;;;5.30;99.90;;;;;;5080657;28;20055;-55
2022/01/22 08:10:26;;;;;;;4.65;2.83;;;5.30;99.90;;;;;;5079296;28;20157;-52
2022/01/22 08:12:53;;;;;;;5.10;2.20;;;5.40;99.90;;;;;;5079418;28;20208;-53
2022/01/22 08:15:19;;;;;;;4.75;2.20;;;5.40;99.90;;;;;;5080446;28;20020;-54
2022/01/22 08:17:45;;;;;;;6.60;2.83;;;5.30;99.90;;;;;;5062267;28;20036;-54
2022/01/22 08:20:12;;;;;;;4.45;2.50;;;5.30;99.90;;;;;;5080342;28;20456;-54
2022/01/22 08:22:38;;;;;;;6.28;2.30;;;5.30;99.90;;;;;;5078470;28;20080;-55
2022/01/22 08:25:04;;;;;;;4.22;2.05;;;5.30;99.90;;;;;;5078306;28;20052;-53
2022/01/22 08:29:58;;;;;;;2.55;2.28;;;5.30;99.90;;;;;;5079694;28;20032;-54
2022/01/22 08:32:58;;;;;;;4.20;2.58;;;5.30;99.90;;;;;;5079556;28;20028;-54
2022/01/22 08:38:02;;;;;;;4.60;3.03;;;5.40;99.90;;;;;;5080427;28;20124;-54
2022/01/22 08:40:27;;;;;;;8.18;3.80;;;5.30;99.90;;;;;;5078776;28;20497;-56
2022/01/22 08:42:53;;;;;;;5.55;3.13;;;5.40;99.90;;;;;;5075522;28;20040;-50
2022/01/22 08:45:18;;;;;;;10.93;4.05;;;5.40;99.90;;;;;;5078845;28;20082;-52
2022/01/22 08:47:44;;;;;;;5.03;3.53;;;5.40;99.90;;;;;;5080047;28;20032;-56
2022/01/22 08:50:10;;;;;;;6.95;4.15;;;5.40;99.90;;;;;;5078911;28;20031;-55
2022/01/22 08:52:36;;;;;;;5.40;3.03;;;5.40;99.90;;;;;;5076586;28;20058;-50
2022/01/22 08:55:06;;;;;;;11.68;3.17;;;5.50;99.90;;;;;;5078784;28;20052;-54
2022/01/22 08:57:31;;;;;;;7.00;3.58;;;5.50;99.90;;;;;;5077378;28;20724;-53
2022/01/22 08:59:57;;;;;;;8.68;3.30;;;5.50;99.90;;;;;;5078596;28;20112;-54
2022/01/22 09:02:23;;;;;;;7.53;2.65;;;5.50;99.90;;;;;;5078183;28;20391;-56
2022/01/22 09:04:49;;;;;;;9.23;2.90;;;5.50;99.90;;;;;;5079667;28;20028;-51
2022/01/22 09:07:15;;;;;;;4.35;2.28;;;5.50;99.90;;;;;;5078444;28;20505;-52
2022/01/22 09:09:41;;;;;;;6.35;2.33;;;5.50;99.90;;;;;;5079358;28;20130;-52
2022/01/22 09:12:09;;;;;;;5.45;2.17;;;5.60;99.90;;;;;;5077381;28;20082;-58
2022/01/22 09:14:35;;;;;;;6.15;2.40;;;5.60;99.90;;;;;;5078301;28;20025;-53
2022/01/22 09:17:01;;;;;;;5.70;2.22;;;5.60;99.90;;;;;;5079756;28;20020;-56
2022/01/22 09:19:33;;;;;;;5.30;2.80;;;5.60;99.90;;;;;;5079113;28;20029;-58
2022/01/22 09:22:04;;;;;;;7.47;2.70;;;5.70;99.90;;;;;;5077262;28;20122;-58
2022/01/22 09:24:30;;;;;;;6.65;2.08;;;5.70;99.90;;;;;;5078605;28;20399;-54
2022/01/22 09:26:58;;;;;;;7.60;1.83;;;5.70;99.90;;;;;;5077830;28;20036;-57
2022/01/22 09:29:24;;;;;;;8.30;2.35;;;5.80;99.90;;;;;;5080000;28;20020;-52
2022/01/22 09:31:50;;;;;;;7.47;2.53;;;5.80;99.90;;;;;;5077398;28;20555;-57
2022/01/22 09:34:16;;;;;;;11.25;2.42;;;5.80;99.90;;;;;;5080532;28;20028;-58
2022/01/22 09:36:41;;;;;;;4.32;1.95;;;5.80;99.90;;;;;;5082381;28;20036;-56
2022/01/22 09:39:07;;;;;;;2.92;2.60;;;5.80;99.90;;;;;;5081181;28;20398;-54
2022/01/22 09:41:33;;;;;;;4.15;2.60;;;5.80;99.90;;;;;;5064151;28;20038;-51
2022/01/22 09:43:59;;;;;;;4.80;2.92;;;5.80;99.90;;;;;;5081277;28;20032;-57
2022/01/22 09:46:27;;;;;;;6.15;2.80;;;5.80;99.90;;;;;;5082120;28;20475;-54
2022/01/22 09:48:52;;;;;;;5.80;3.05;;;5.80;99.90;;;;;;5079403;28;20043;-50
2022/01/22 09:51:18;;;;;;;9.25;2.88;;;5.80;99.90;;;;;;5082086;28;20036;-57
2022/01/22 09:53:45;;;;;;;5.05;2.63;;;5.90;99.90;;;;;;5080311;28;20029;-53
2022/01/22 09:56:12;;;;;;;7.10;2.95;;;5.80;99.90;;;;;;5081470;28;20450;-53
2022/01/22 09:58:38;;;;;;;10.30;2.60;;;5.90;99.90;;;;;;5079846;28;20492;-54
2022/01/22 10:01:20;;;;;;;8.32;2.42;;;5.90;99.90;;;;;;5082739;28;20028;-52
2022/01/22 10:03:46;;;;;;;8.60;2.55;;;5.90;99.90;;;;;;5082035;28;20415;-54
2022/01/22 10:06:23;;;;;;;5.57;2.70;;;5.90;99.90;;;;;;5080987;28;20081;-55
2022/01/22 10:08:54;;;;;;;5.22;2.50;;;5.90;99.90;;;;;;5079746;28;20051;-53
2022/01/22 10:11:26;;;;;;;7.13;2.25;;;5.90;99.90;;;;;;5082299;28;20039;-54
2022/01/22 10:13:53;;;;;;;4.28;2.85;;;5.90;99.90;;;;;;5062765;28;20060;-54
2022/01/22 10:16:27;;;;;;;4.35;2.75;;;6.00;99.90;;;;;;5080410;28;20037;-51
2022/01/22 10:19:13;;;;;;;8.50;3.30;;;6.00;99.90;;;;;;5082760;28;20031;-56
2022/01/22 10:21:40;;;;;;;;;;;6.10;99.90;;;;;;5080703;28;20028;-53
2022/01/22 10:24:45;;;;;;;5.75;3.90;;;6.10;99.90;;;;;;5082163;28;19995;-52
2022/01/22 10:27:35;;;;;;;5.72;3.58;;;6.10;99.90;;;;;;5021509;28;20036;-54
2022/01/22 10:30:08;;;;;;;6.70;3.60;;;6.10;99.90;;;;;;5081438;28;20438;-55
2022/01/22 10:32:50;;;;;;;8.05;3.30;;;6.10;99.90;;;;;;5080984;28;20028;-53
2022/01/22 10:35:25;;;;;;;10.80;3.65;;;6.10;99.90;;;;;;5079997;28;20024;-52
2022/01/22 10:37:55;;;;;;;9.88;3.47;;;6.10;99.90;;;;;;5080815;28;20036;-56
2022/01/22 10:40:32;;;;;;;4.75;3.25;;;6.10;99.90;;;;;;5061230;28;20174;-55
2022/01/22 10:43:13;;;;;;;8.07;2.58;;;6.10;99.90;;;;;;5080490;28;20040;-55
2022/01/22 10:45:42;;;;;;;5.50;2.83;;;6.20;99.90;;;;;;5080483;28;20107;-51
2022/01/22 10:48:22;;;;;;;5.70;3.00;;;6.20;99.90;;;;;;5080050;28;20032;-55
2022/01/22 10:51:14;;;;;;;4.93;3.67;;;6.20;99.90;;;;;;5080635;28;20215;-56
2022/01/22 10:53:45;;;;;;;4.75;2.80;;;6.20;99.90;;;;;;5076580;28;20560;-54
2022/01/22 10:56:13;;;;;;;5.68;3.03;;;6.30;99.90;;;;;;5080857;28;20422;-54
2022/01/22 10:59:09;;;;;;;5.28;3.58;;;6.30;99.90;;;;;;5079495;28;20028;-53
2022/01/22 11:01:51;;;;;;;3.60;3.08;;;6.30;99.90;;;;;;5061684;28;20484;-55
2022/01/22 11:04:25;;;;;;;4.90;3.00;;;6.30;99.90;;;;;;5080231;28;20024;-55
2022/01/22 11:06:54;;;;;;;4.20;3.13;;;6.30;99.90;;;;;;5061993;28;20060;-56
2022/01/22 11:09:21;;;;;;;4.07;3.20;;;6.40;99.90;;;;;;5080501;28;20427;-54
2022/01/22 11:11:47;;;;;;;3.78;2.83;;;6.40;99.90;;;;;;5079930;28;20025;-54
2022/01/22 11:14:13;;;;;;;6.45;3.92;;;6.50;99.90;;;;;;5081233;28;20020;-52
2022/01/22 11:16:41;;;;;;;4.65;2.95;;;6.40;99.90;;;;;;5060586;28;20119;-49
2022/01/22 11:19:13;;;;;;;6.18;3.65;;;6.40;99.90;;;;;;5080703;28;20028;-51
2022/01/22 11:21:44;;;;;;;6.10;3.42;;;6.50;99.90;;;;;;5078940;28;20044;-58
2022/01/22 11:24:12;;;;;;;4.95;3.25;;;6.50;99.90;;;;;;5080318;28;20016;-54
2022/01/22 11:26:38;;;;;;;7.30;4.15;;;6.50;99.90;;;;;;5080342;28;20036;-55
2022/01/22 11:29:05;;;;;;;4.75;3.53;;;6.50;99.90;;;;;;5061715;28;20029;-52
2022/01/22 11:31:33;;;;;;;4.60;3.03;;;6.60;99.90;;;;;;5080227;28;20397;-51
2022/01/22 11:34:00;;;;;;;3.42;2.83;;;6.60;99.90;;;;;;5079986;28;20036;-51
2022/01/22 11:36:33;;;;;;;4.93;3.17;;;6.60;99.90;;;;;;5075996;28;20048;-54
2022/01/22 11:39:00;;;;;;;3.10;2.47;;;6.60;99.90;;;;;;5081120;28;20024;-57
2022/01/22 11:41:27;;;;;;;2.72;2.10;;;6.60;99.90;;;;;;5080177;28;20028;-55
2022/01/22 11:46:34;;;;;;;2.90;2.30;;;6.60;99.90;;;;;;5079877;28;20032;-55
2022/01/22 11:49:12;;;;;;;3.35;2.40;;;6.60;99.90;;;;;;5077972;28;20032;-52
2022/01/22 11:51:38;;;;;;;2.80;2.13;;;6.60;99.90;;;;;;5079917;28;20036;-54
2022/01/22 11:54:04;;;;;;;2.97;2.20;;;6.60;99.90;;;;;;5078255;28;20048;-54
2022/01/22 11:56:40;;;;;;;2.83;2.03;;;6.60;99.90;;;;;;5079968;28;20081;-53
2022/01/22 11:59:11;;;;;;;3.72;2.78;;;6.60;99.90;;;;;;5077530;28;20020;-56
2022/01/22 12:02:03;;;;;;;2.50;2.30;;;6.60;99.90;;;;;;5061986;28;20097;-52
2022/01/22 12:04:37;;;;;;;4.40;2.25;;;6.60;99.90;;;;;;5079545;28;20028;-53
2022/01/22 12:07:03;;;;;;;3.95;2.65;;;6.60;99.90;;;;;;5079845;28;20491;-51
2022/01/22 12:10:15;;;;;;;5.35;2.78;;;6.60;99.90;;;;;;5060285;28;20032;-54
2022/01/22 12:15:22;;;;;;;4.10;2.50;;;6.60;99.90;;;;;;5079194;28;20062;-55
2022/01/22 12:17:53;;;;;;;3.63;2.25;;;6.60;99.90;;;;;;5079349;28;20021;-54
2022/01/22 12:23:06;;;;;;;2.97;2.40;;;6.70;99.90;;;;;;5079170;28;20042;-56
2022/01/22 12:25:35;;;;;;;3.97;2.65;;;6.70;99.90;;;;;;5078983;28;20071;-55
2022/01/22 12:28:02;;;;;;;3.28;2.53;;;6.70;99.90;;;;;;5080635;28;20031;-59
2022/01/22 12:30:33;;;;;;;2.90;2.38;;;6.70;99.90;;;;;;5076524;28;20112;-56
2022/01/22 12:33:02;;;;;;;3.20;2.90;;;6.70;99.90;;;;;;5076475;28;20654;-56
2022/01/22 12:35:36;;;;;;;2.83;2.53;;;6.70;99.90;;;;;;5060111;28;20028;-53
2022/01/22 12:38:23;;;;;;;3.35;2.70;;;6.70;99.90;;;;;;5080496;28;20029;-54
2022/01/22 12:40:54;;;;;;;3.47;2.85;;;6.70;99.90;;;;;;5078856;28;20031;-58
2022/01/22 12:43:28;;;;;;;2.03;1.83;;;6.70;99.90;;;;;;5078937;28;20036;-53
2022/01/22 12:45:57;;;;;;;2.85;1.90;;;6.70;99.90;;;;;;5079189;28;20106;-52
2022/01/22 12:48:26;;;;;;;2.42;1.98;;;6.70;99.90;;;;;;5079702;28;20047;-51
2022/01/22 12:50:52;;;;;;;2.75;1.80;;;6.60;99.90;;;;;;5079197;28;20073;-51
2022/01/22 12:53:19;;;;;;;1.45;1.33;;;6.60;99.90;;;;;;5080125;28;20036;-57
2022/01/22 12:58:38;;;;;;;1.95;1.17;;;6.60;99.90;;;;;;5030162;28;20047;-54
2022/01/22 13:01:08;;;;;;;2.92;1.40;;;6.60;99.90;;;;;;5077936;28;20093;-54
2022/01/22 13:03:36;;;;;;;1.85;1.13;;;6.60;99.90;;;;;;5077464;28;20032;-54
2022/01/22 13:06:03;;;;;;;1.67;1.13;;;6.70;99.90;;;;;;5078443;28;20035;-52
2022/01/22 13:08:30;;;;;;;2.60;1.40;;;6.60;99.90;;;;;;5077243;28;20039;-54
2022/01/22 13:11:00;;;;;;;1.30;1.20;;;6.70;99.90;;;;;;5081919;28;20031;-53
2022/01/22 13:13:25;;;;;;;1.40;1.17;;;6.70;99.90;;;;;;5083039;28;20024;-52
2022/01/22 13:16:08;;;;;;;1.77;1.48;;;6.70;99.90;;;;;;5082601;28;20029;-53
2022/01/22 13:18:56;;;;;;;2.60;1.05;;;6.70;99.90;;;;;;5082690;28;20511;-50
2022/01/22 13:21:31;;;;;;;1.95;1.25;;;6.70;99.90;;;;;;5083180;28;20684;-55
2022/01/22 13:24:04;;;;;;;1.50;0.93;;;6.70;99.90;;;;;;5082467;28;20475;-56
2022/01/22 13:27:08;;;;;;;6.75;1.42;;;6.60;99.90;;;;;;5083495;28;20028;-55
2022/01/22 13:29:38;;;;;;;3.90;1.25;;;6.70;99.90;;;;;;5082395;28;20119;-54
2022/01/22 13:32:13;;;;;;;1.73;1.05;;;6.60;99.90;;;;;;5082519;28;20026;-54
2022/01/22 13:45:23;;;;;;;3.25;0.80;;;6.60;99.90;;;;;;5083830;28;20113;-55
2022/01/22 13:47:55;;;;;;;1.83;0.60;;;6.60;99.90;;;;;;5080597;28;20501;-52
2022/01/22 13:50:22;;;;;;;1.83;0.93;;;6.60;99.90;;;;;;5082229;28;20033;-56
2022/01/22 13:52:48;;;;;;;0.75;0.70;;;6.60;99.90;;;;;;5081558;28;20077;-58
2022/01/22 13:55:15;;;;;;;1.75;0.70;;;6.60;99.90;;;;;;5065426;28;20065;-55
2022/01/22 13:57:44;;;;;;;2.55;1.00;;;6.60;99.90;;;;;;5063585;28;20027;-53
2022/01/22 14:00:16;;;;;;;1.13;1.00;;;6.50;99.90;;;;;;5083768;28;20063;-55
2022/01/22 14:05:26;;;;;;;1.13;0.93;;;6.50;99.90;;;;;;5083098;28;20035;-57
2022/01/22 14:08:07;;;;;;;1.35;1.25;;;6.50;99.90;;;;;;5080851;28;20058;-53
2022/01/22 14:10:34;;;;;;;3.03;1.10;;;6.50;99.90;;;;;;5078802;28;20042;-54
2022/01/22 14:13:06;;;;;;;5.03;2.47;;;6.50;99.90;;;;;;5081743;28;20028;-53
2022/01/22 14:15:38;;;;;;;3.75;2.10;;;6.50;99.90;;;;;;5079617;28;20063;-55
2022/01/22 14:18:18;;;;;;;2.10;1.98;;;6.50;99.90;;;;;;5081300;28;20017;-54
2022/01/22 14:21:03;;;;;;;3.25;1.83;;;6.50;99.90;;;;;;5079436;28;20024;-54
2022/01/22 14:23:33;;;;;;;2.47;2.20;;;6.50;99.90;;;;;;5080491;28;20446;-54
2022/01/22 14:26:15;;;;;;;2.88;1.83;;;6.50;99.90;;;;;;5080372;28;20044;-58
2022/01/22 14:28:48;;;;;;;2.50;1.60;;;6.50;99.90;;;;;;5081208;28;20488;-54
2022/01/22 14:31:29;;;;;;;2.00;1.80;;;6.50;99.90;;;;;;5079897;28;20483;-57
2022/01/22 14:34:01;;;;;;;1.88;1.75;;;6.40;99.90;;;;;;5080824;28;20036;-52
2022/01/22 14:36:30;;;;;;;2.97;1.65;;;6.40;99.90;;;;;;5081473;28;20027;-53
2022/01/22 14:44:48;;;;;;;2.73;2.30;;;6.50;99.90;;;;;;5082391;28;20032;-54
2022/01/22 14:47:16;;;;;;;2.20;2.00;;;6.40;99.90;;;;;;5078644;28;20020;-55
2022/01/22 14:49:47;;;;;;;3.70;2.55;;;6.50;99.90;;;;;;5058938;28;20012;-53
2022/01/22 14:52:16;;;;;;;3.15;2.47;;;6.50;99.90;;;;;;5075970;28;20490;-54
2022/01/22 14:54:44;;;;;;;2.90;2.13;;;6.40;99.90;;;;;;5076331;28;20051;-54
2022/01/22 14:57:12;;;;;;;3.38;2.13;;;6.40;99.90;;;;;;5075536;28;20434;-52
2022/01/22 14:59:40;;;;;;;3.88;2.20;;;6.40;99.90;;;;;;5074704;28;20115;-52
2022/01/22 15:02:06;;;;;;;3.55;2.47;;;6.40;99.90;;;;;;5072416;28;20028;-54
2022/01/22 15:04:33;;;;;;;5.13;2.70;;;6.40;99.90;;;;;;5076232;28;20040;-52